Time;durP1;ratioP1;P1;durP2;ratioP2;P2;SDS_P1;SDS_P2;PMS_P1;PMS_P2;Temp;Humidity;BMP_temperature;BMP_pressure;BME280_temperature;BME280_humidity;BME280_pressure;Samples;Min_cycle;Max_cycle;Signal;HPM_P1;HPM_P2
2023/11/17 00:01:40;;;;;;;8.05;5.47;;;8.10;99.90;;;;;;4165461;28;20397;-66
2023/11/17 00:03:41;;;;;;;10.25;5.53;;;8.10;99.90;;;;;;4175588;28;20037;-66
2023/11/17 00:05:41;;;;;;;9.95;5.40;;;8.10;99.90;;;;;;4188705;28;20028;-66
2023/11/17 00:07:42;;;;;;;9.63;5.40;;;8.00;99.90;;;;;;4174464;28;20493;-66
2023/11/17 00:09:46;;;;;;;7.50;5.53;;;8.10;99.90;;;;;;4173031;28;20548;-66
2023/11/17 00:11:47;;;;;;;7.60;5.18;;;8.00;99.90;;;;;;4174096;28;20044;-66
2023/11/17 00:13:49;;;;;;;12.50;5.40;;;8.00;99.90;;;;;;4165253;28;20048;-67
2023/11/17 00:15:50;;;;;;;8.90;5.38;;;8.10;99.90;;;;;;4171889;28;20045;-67
2023/11/17 00:17:52;;;;;;;8.38;5.50;;;8.10;99.90;;;;;;4173821;28;20036;-66
2023/11/17 00:19:53;;;;;;;7.07;4.72;;;8.00;99.90;;;;;;4173149;28;20045;-66
2023/11/17 00:21:53;;;;;;;6.95;4.72;;;8.10;99.90;;;;;;4159422;28;20460;-67
2023/11/17 00:23:54;;;;;;;7.97;5.40;;;8.10;99.90;;;;;;4170416;28;20090;-67
2023/11/17 00:25:55;;;;;;;6.70;4.80;;;8.10;99.90;;;;;;4176649;28;20036;-67
2023/11/17 00:27:56;;;;;;;7.45;5.18;;;8.10;99.90;;;;;;4171296;28;20037;-66
2023/11/17 00:29:56;;;;;;;7.45;4.93;;;8.00;99.90;;;;;;4172444;28;20083;-67
2023/11/17 00:31:58;;;;;;;7.75;5.50;;;8.00;99.90;;;;;;4167799;28;20060;-67
2023/11/17 00:33:59;;;;;;;7.73;5.57;;;8.00;99.90;;;;;;4175966;28;20113;-67
2023/11/17 00:36:00;;;;;;;8.88;5.00;;;8.10;99.90;;;;;;4173114;28;20112;-67
2023/11/17 00:38:01;;;;;;;7.95;5.60;;;8.00;99.90;;;;;;4178182;28;20490;-73
2023/11/17 00:40:02;;;;;;;7.43;4.80;;;8.00;99.90;;;;;;4173919;28;20041;-76
2023/11/17 00:42:03;;;;;;;6.70;4.57;;;8.00;99.90;;;;;;4174926;28;20374;-77
2023/11/17 00:44:04;;;;;;;8.38;5.32;;;7.90;99.90;;;;;;4174807;28;20121;-77
2023/11/17 00:46:05;;;;;;;6.80;4.90;;;8.00;99.90;;;;;;4170813;28;20064;-78
2023/11/17 00:48:05;;;;;;;7.82;4.82;;;8.00;99.90;;;;;;4163549;28;20040;-78
2023/11/17 00:50:10;;;;;;;8.25;5.22;;;7.90;99.90;;;;;;4161015;28;20103;-78
2023/11/17 00:52:11;;;;;;;8.85;5.82;;;7.90;99.90;;;;;;4176195;28;20469;-78
2023/11/17 00:54:14;;;;;;;8.35;5.40;;;7.90;99.90;;;;;;4176764;28;20048;-77
2023/11/17 00:56:16;;;;;;;6.55;5.00;;;7.90;99.90;;;;;;4174961;28;20033;-78
2023/11/17 00:58:16;;;;;;;7.72;5.20;;;7.90;99.90;;;;;;4177550;28;20033;-78
2023/11/17 01:00:17;;;;;;;8.25;5.30;;;7.90;99.90;;;;;;4171891;28;20050;-78
2023/11/17 01:02:18;;;;;;;8.43;5.53;;;7.90;99.90;;;;;;4165808;28;20113;-78
2023/11/17 01:04:19;;;;;;;8.82;5.75;;;7.90;99.90;;;;;;4152855;28;23209;-77
2023/11/17 01:06:21;;;;;;;8.68;5.57;;;7.90;99.90;;;;;;4175691;28;20047;-77
2023/11/17 01:08:22;;;;;;;8.70;5.78;;;7.90;99.90;;;;;;4166223;28;20044;-77
2023/11/17 01:10:24;;;;;;;9.00;5.85;;;7.90;99.90;;;;;;4171116;28;20107;-78
2023/11/17 01:12:25;;;;;;;7.90;5.90;;;7.90;99.90;;;;;;4176083;28;20083;-77
2023/11/17 01:14:25;;;;;;;8.82;5.45;;;7.90;99.90;;;;;;4160543;28;20058;-78
2023/11/17 01:16:26;;;;;;;7.43;4.82;;;7.80;99.90;;;;;;4168982;28;20049;-77
2023/11/17 01:18:27;;;;;;;10.15;6.22;;;7.90;99.90;;;;;;4177349;28;20044;-78
2023/11/17 01:20:27;;;;;;;9.43;5.82;;;7.80;99.90;;;;;;4167624;28;20107;-78
2023/11/17 01:22:29;;;;;;;8.85;6.10;;;7.80;99.90;;;;;;4176302;28;20037;-77
2023/11/17 01:24:30;;;;;;;8.20;5.18;;;7.80;99.90;;;;;;4144610;28;20115;-78
2023/11/17 01:26:31;;;;;;;11.13;5.72;;;7.80;99.90;;;;;;4150063;28;20039;-76
2023/11/17 01:28:32;;;;;;;10.45;6.60;;;7.80;99.90;;;;;;4176066;28;20057;-77
2023/11/17 01:30:33;;;;;;;9.57;5.75;;;7.80;99.90;;;;;;4154162;28;20033;-78
2023/11/17 01:32:33;;;;;;;8.80;5.75;;;7.80;99.90;;;;;;4138093;28;20029;-78
2023/11/17 01:34:35;;;;;;;9.48;6.00;;;7.80;99.90;;;;;;4159261;28;20112;-77
2023/11/17 01:36:36;;;;;;;7.18;5.07;;;7.70;99.90;;;;;;4164084;28;20037;-76
2023/11/17 01:38:37;;;;;;;8.15;5.03;;;7.70;99.90;;;;;;4174428;28;20048;-78
2023/11/17 01:40:38;;;;;;;9.85;5.88;;;7.70;99.90;;;;;;4171478;28;20091;-77
2023/11/17 01:42:38;;;;;;;8.60;5.35;;;7.70;99.90;;;;;;4163052;28;20044;-76
2023/11/17 01:44:39;;;;;;;10.23;4.97;;;7.70;99.90;;;;;;4172141;28;20491;-76
2023/11/17 01:46:40;;;;;;;7.32;5.25;;;7.70;99.90;;;;;;4159478;28;20037;-77
2023/11/17 01:48:41;;;;;;;7.38;5.20;;;7.70;99.90;;;;;;4176152;28;20029;-70
2023/11/17 01:50:42;;;;;;;6.78;4.68;;;7.70;99.90;;;;;;4174374;28;20041;-70
2023/11/17 01:52:43;;;;;;;6.90;4.82;;;7.70;99.90;;;;;;4170521;28;20509;-69
2023/11/17 01:54:48;;;;;;;6.47;4.60;;;7.70;99.90;;;;;;4176683;28;20102;-69
2023/11/17 01:56:51;;;;;;;7.03;4.53;;;7.60;99.90;;;;;;4173525;28;20041;-70
2023/11/17 01:58:52;;;;;;;6.80;4.68;;;7.60;99.90;;;;;;4171819;28;20045;-70
2023/11/17 02:00:53;;;;;;;7.85;4.95;;;7.60;99.90;;;;;;4164781;28;20045;-71
2023/11/17 02:02:55;;;;;;;9.23;5.60;;;7.60;99.90;;;;;;4169677;28;20120;-70
2023/11/17 02:04:56;;;;;;;9.70;5.65;;;7.60;99.90;;;;;;4167351;28;20029;-70
2023/11/17 02:07:05;;;;;;;7.65;4.90;;;7.60;99.90;;;;;;4168986;28;20056;-70
2023/11/17 02:09:33;;;;;;;10.80;5.57;;;7.60;99.90;;;;;;4170179;28;20116;-70
2023/11/17 02:11:44;;;;;;;11.13;5.50;;;7.60;99.90;;;;;;4171717;28;20040;-70
2023/11/17 02:13:58;;;;;;;7.38;5.22;;;7.60;99.90;;;;;;4170526;28;20116;-70
2023/11/17 02:16:02;;;;;;;8.68;5.03;;;7.50;99.90;;;;;;4173443;28;20033;-70
2023/11/17 02:18:04;;;;;;;7.68;5.18;;;7.50;99.90;;;;;;4175633;28;20040;-70
2023/11/17 02:20:11;;;;;;;6.82;5.15;;;7.50;99.90;;;;;;4168556;28;20045;-70
2023/11/17 02:22:19;;;;;;;6.28;4.45;;;7.50;99.90;;;;;;4161818;28;20041;-70
2023/11/17 02:24:22;;;;;;;6.55;5.00;;;7.50;99.90;;;;;;4176151;28;20508;-70
2023/11/17 02:26:42;;;;;;;7.75;5.45;;;7.50;99.90;;;;;;4173087;28;20128;-70
2023/11/17 02:29:00;;;;;;;7.28;4.82;;;7.50;99.90;;;;;;4175369;28;20539;-70
2023/11/17 02:31:15;;;;;;;7.75;5.05;;;7.50;99.90;;;;;;4168647;28;20046;-70
2023/11/17 02:33:16;;;;;;;7.70;4.47;;;7.50;99.90;;;;;;4172418;28;20029;-70
2023/11/17 02:35:17;;;;;;;6.63;4.63;;;7.50;99.90;;;;;;4162601;28;20075;-70
2023/11/17 02:37:22;;;;;;;7.75;4.60;;;7.50;99.90;;;;;;4169156;28;20437;-70
2023/11/17 02:39:25;;;;;;;6.20;4.55;;;7.50;99.90;;;;;;4170847;28;20041;-70
2023/11/17 02:41:29;;;;;;;7.90;5.00;;;7.50;99.90;;;;;;4174109;28;20037;-70
2023/11/17 02:43:29;;;;;;;7.90;5.18;;;7.40;99.90;;;;;;4175802;28;20044;-70
2023/11/17 02:45:36;;;;;;;8.10;5.07;;;7.40;99.90;;;;;;4172487;28;20067;-71
2023/11/17 02:47:38;;;;;;;6.65;4.78;;;7.40;99.90;;;;;;4175586;28;20055;-70
2023/11/17 02:49:41;;;;;;;7.65;4.70;;;7.40;99.90;;;;;;4169168;28;20476;-70
2023/11/17 02:51:50;;;;;;;7.10;4.75;;;7.40;99.90;;;;;;4139830;28;20168;-70
2023/11/17 02:53:55;;;;;;;6.43;4.60;;;7.40;99.90;;;;;;4174734;28;20045;-70
2023/11/17 02:55:57;;;;;;;7.50;4.32;;;7.40;99.90;;;;;;4172124;28;20112;-71
2023/11/17 02:57:59;;;;;;;7.10;4.60;;;7.30;99.90;;;;;;4142356;28;20039;-70
2023/11/17 03:00:00;;;;;;;6.43;4.47;;;7.30;99.90;;;;;;4159347;28;20155;-67
2023/11/17 03:02:05;;;;;;;7.90;4.77;;;7.30;99.90;;;;;;4161721;28;20112;-67
2023/11/17 03:04:13;;;;;;;7.28;5.05;;;7.30;99.90;;;;;;4166949;28;20029;-67
2023/11/17 03:06:14;;;;;;;6.47;4.45;;;7.30;99.90;;;;;;4170774;28;20542;-67
2023/11/17 03:08:15;;;;;;;6.50;4.47;;;7.30;99.90;;;;;;4158947;28;20040;-67
2023/11/17 03:10:18;;;;;;;6.18;4.60;;;7.20;99.90;;;;;;4158704;28;20054;-67
2023/11/17 03:12:19;;;;;;;7.65;5.22;;;7.30;99.90;;;;;;4173852;28;20080;-67
2023/11/17 03:14:24;;;;;;;7.63;5.00;;;7.20;99.90;;;;;;4175872;28;20025;-67
2023/11/17 03:16:25;;;;;;;7.07;4.97;;;7.20;99.90;;;;;;4169893;28;20516;-67
2023/11/17 03:18:30;;;;;;;6.90;4.55;;;7.20;99.90;;;;;;4167620;28;20041;-67
2023/11/17 03:20:31;;;;;;;7.43;4.90;;;7.20;99.90;;;;;;4171635;28;20853;-67
2023/11/17 03:22:32;;;;;;;7.93;4.88;;;7.10;99.90;;;;;;4175414;28;20094;-67
2023/11/17 03:24:34;;;;;;;8.05;5.28;;;7.10;99.90;;;;;;4174514;28;20116;-67
2023/11/17 03:26:34;;;;;;;7.07;5.10;;;7.10;99.90;;;;;;4172757;28;20492;-67
2023/11/17 03:28:35;;;;;;;7.22;4.78;;;7.10;99.90;;;;;;4175502;28;20037;-67
2023/11/17 03:30:36;;;;;;;7.35;4.82;;;7.00;99.90;;;;;;4169019;28;20045;-67
2023/11/17 03:32:37;;;;;;;10.13;5.18;;;7.00;99.90;;;;;;4175179;28;20056;-67
2023/11/17 03:34:40;;;;;;;8.27;4.93;;;7.00;99.90;;;;;;4176962;28;20069;-67
2023/11/17 03:36:41;;;;;;;7.35;4.70;;;7.00;99.90;;;;;;4169293;28;20037;-67
2023/11/17 03:38:42;;;;;;;6.85;4.63;;;6.90;99.90;;;;;;4171274;28;20057;-67
2023/11/17 03:40:47;;;;;;;6.60;4.50;;;6.90;99.90;;;;;;4165076;28;20038;-67
2023/11/17 03:42:47;;;;;;;6.53;4.60;;;6.80;99.90;;;;;;4173773;28;20033;-67
2023/11/17 03:44:48;;;;;;;7.30;4.75;;;6.80;99.90;;;;;;4167114;28;20481;-67
2023/11/17 03:46:53;;;;;;;6.65;4.72;;;6.80;99.90;;;;;;4168062;28;20040;-67
2023/11/17 03:48:56;;;;;;;8.02;4.88;;;6.80;99.90;;;;;;4166827;28;20039;-67
2023/11/17 03:50:56;;;;;;;9.15;4.88;;;6.80;99.90;;;;;;4173533;28;20045;-67
2023/11/17 03:52:59;;;;;;;6.57;4.60;;;6.80;99.90;;;;;;4174549;28;20036;-67
2023/11/17 03:55:00;;;;;;;8.60;5.35;;;6.80;99.90;;;;;;4148265;28;20435;-67
2023/11/17 03:57:03;;;;;;;8.88;5.10;;;6.80;99.90;;;;;;4171814;28;20037;-67
2023/11/17 03:59:04;;;;;;;11.00;5.72;;;6.70;99.90;;;;;;4173125;28;20036;-67
2023/11/17 04:01:04;;;;;;;7.60;4.90;;;6.70;99.90;;;;;;4164329;28;20041;-66
2023/11/17 04:03:05;;;;;;;7.55;5.22;;;6.80;99.90;;;;;;4175497;28;20378;-68
2023/11/17 04:05:06;;;;;;;7.53;4.97;;;6.70;99.90;;;;;;4174448;28;20112;-67
2023/11/17 04:07:08;;;;;;;7.68;4.82;;;6.70;99.90;;;;;;4172618;28;20388;-67
2023/11/17 04:09:12;;;;;;;7.38;4.93;;;6.70;99.90;;;;;;4171510;28;20443;-68
2023/11/17 04:11:15;;;;;;;7.00;4.63;;;6.70;99.90;;;;;;4160235;28;20121;-68
2023/11/17 04:13:15;;;;;;;7.28;4.35;;;6.60;99.90;;;;;;4164201;28;20485;-68
2023/11/17 04:15:16;;;;;;;6.30;4.03;;;6.70;99.90;;;;;;4163597;28;20048;-68
2023/11/17 04:17:18;;;;;;;4.93;3.58;;;6.70;99.90;;;;;;4169792;28;20068;-68
2023/11/17 04:19:19;;;;;;;3.65;2.90;;;6.60;99.90;;;;;;4167562;28;20053;-67
2023/11/17 04:21:21;;;;;;;4.13;2.72;;;6.70;99.90;;;;;;4148968;28;20037;-69
2023/11/17 04:23:22;;;;;;;3.85;2.65;;;6.60;99.90;;;;;;4165305;28;20030;-68
2023/11/17 04:25:23;;;;;;;3.88;2.97;;;6.60;99.90;;;;;;4174341;28;20082;-68
2023/11/17 04:27:24;;;;;;;4.57;2.80;;;6.60;99.90;;;;;;4168666;28;20030;-68
2023/11/17 04:29:27;;;;;;;5.85;3.38;;;6.60;99.90;;;;;;4170950;28;20037;-67
2023/11/17 04:31:28;;;;;;;6.80;4.20;;;6.60;99.90;;;;;;4169232;28;20086;-68
2023/11/17 04:33:30;;;;;;;6.47;3.65;;;6.60;99.90;;;;;;4181743;28;20474;-68
2023/11/17 04:35:31;;;;;;;7.38;4.20;;;6.60;99.90;;;;;;4166844;28;20037;-68
2023/11/17 04:37:31;;;;;;;12.98;5.78;;;6.70;99.90;;;;;;4162005;28;20044;-68
2023/11/17 04:39:32;;;;;;;12.57;6.15;;;6.70;99.90;;;;;;4172653;28;20033;-68
2023/11/17 04:41:33;;;;;;;11.38;6.30;;;6.70;99.90;;;;;;4168665;28;20474;-68
2023/11/17 04:43:35;;;;;;;12.00;7.10;;;6.70;99.90;;;;;;4160277;28;20036;-68
2023/11/17 04:45:37;;;;;;;12.05;7.03;;;6.80;99.90;;;;;;4156057;28;20030;-68
2023/11/17 04:47:38;;;;;;;10.55;7.22;;;6.80;99.90;;;;;;4171355;28;20029;-68
2023/11/17 04:49:39;;;;;;;11.88;7.53;;;6.80;99.90;;;;;;4171280;28;20098;-68
2023/11/17 04:51:49;;;;;;;10.55;7.38;;;6.80;99.90;;;;;;4168733;28;20492;-68
2023/11/17 04:53:49;;;;;;;11.75;7.72;;;6.80;99.90;;;;;;4171983;28;20056;-68
2023/11/17 04:55:52;;;;;;;10.75;7.10;;;6.90;99.90;;;;;;4168464;28;20116;-68
2023/11/17 04:57:54;;;;;;;12.57;7.15;;;6.80;99.90;;;;;;4174938;28;20461;-68
2023/11/17 04:59:55;;;;;;;12.57;8.10;;;6.80;99.90;;;;;;4154522;28;20041;-68
2023/11/17 05:01:56;;;;;;;12.98;7.93;;;6.80;99.90;;;;;;4154941;28;20102;-68
2023/11/17 05:04:00;;;;;;;11.30;7.60;;;6.80;99.90;;;;;;4174874;28;20060;-68
2023/11/17 05:06:02;;;;;;;12.27;7.53;;;6.80;99.90;;;;;;4174418;28;20042;-68
2023/11/17 05:08:03;;;;;;;9.45;6.95;;;6.80;99.90;;;;;;4173178;28;20487;-68
2023/11/17 05:10:05;;;;;;;11.77;7.35;;;6.80;99.90;;;;;;4187857;28;20064;-68
2023/11/17 05:12:06;;;;;;;11.93;6.83;;;6.80;99.90;;;;;;4172689;28;20033;-69
2023/11/17 05:14:07;;;;;;;8.82;5.97;;;6.80;99.90;;;;;;4175803;28;20317;-69
2023/11/17 05:16:09;;;;;;;9.27;6.53;;;6.80;99.90;;;;;;4173799;28;20040;-68
2023/11/17 05:18:10;;;;;;;10.77;7.28;;;6.80;99.90;;;;;;4171564;28;20037;-64
2023/11/17 05:20:22;;;;;;;9.35;6.68;;;6.80;99.90;;;;;;4150042;28;20037;-64
2023/11/17 05:22:23;;;;;;;8.70;6.20;;;6.80;99.90;;;;;;4170971;28;20045;-64
2023/11/17 05:24:24;;;;;;;7.50;5.28;;;6.80;99.90;;;;;;4149379;28;20843;-64
2023/11/17 05:26:25;;;;;;;8.60;6.45;;;6.70;99.90;;;;;;4139303;28;20029;-64
2023/11/17 05:28:26;;;;;;;8.60;5.90;;;6.70;99.90;;;;;;4159550;28;20043;-64
2023/11/17 05:30:27;;;;;;;6.67;5.10;;;6.70;99.90;;;;;;4169934;28;20056;-64
2023/11/17 05:32:29;;;;;;;6.93;4.57;;;6.70;99.90;;;;;;4175016;28;20043;-64
2023/11/17 05:34:29;;;;;;;7.65;5.40;;;6.70;99.90;;;;;;4170112;28;20057;-64
2023/11/17 05:36:30;;;;;;;6.70;5.15;;;6.60;99.90;;;;;;4175924;28;20029;-64
2023/11/17 05:38:31;;;;;;;7.03;5.30;;;6.60;99.90;;;;;;4176573;28;20037;-64
2023/11/17 05:40:33;;;;;;;8.32;5.53;;;6.70;99.90;;;;;;4171821;28;20400;-64
2023/11/17 05:42:34;;;;;;;7.57;5.13;;;6.70;99.90;;;;;;4135127;28;20112;-64
2023/11/17 05:44:35;;;;;;;7.78;5.50;;;6.60;99.90;;;;;;4152953;28;20140;-64
2023/11/17 05:46:35;;;;;;;8.50;5.82;;;6.70;99.90;;;;;;4162587;28;20116;-64
2023/11/17 05:48:37;;;;;;;7.30;5.45;;;6.70;99.90;;;;;;4166384;28;20037;-65
2023/11/17 05:50:37;;;;;;;7.10;5.38;;;6.60;99.90;;;;;;4170602;28;20397;-64
2023/11/17 05:52:39;;;;;;;9.35;5.38;;;6.60;99.90;;;;;;4173554;28;20036;-65
2023/11/17 05:54:44;;;;;;;7.77;5.73;;;6.60;99.90;;;;;;4173088;28;20056;-64
2023/11/17 05:56:45;;;;;;;7.13;5.70;;;6.50;99.90;;;;;;4178395;28;20094;-64
2023/11/17 05:58:45;;;;;;;7.47;5.63;;;6.50;99.90;;;;;;4180445;28;20400;-64
2023/11/17 06:00:46;;;;;;;8.27;6.25;;;6.50;99.90;;;;;;4173795;28;20051;-64
2023/11/17 06:02:47;;;;;;;9.18;5.70;;;6.50;99.90;;;;;;4176271;28;24023;-64
2023/11/17 06:04:48;;;;;;;7.78;5.50;;;6.50;99.90;;;;;;4179048;28;20036;-64
2023/11/17 06:06:49;;;;;;;11.02;6.25;;;6.50;99.90;;;;;;4175566;28;20059;-64
2023/11/17 06:08:49;;;;;;;9.00;5.65;;;6.50;99.90;;;;;;4173877;28;20029;-64
2023/11/17 06:10:50;;;;;;;7.97;5.72;;;6.40;99.90;;;;;;4174042;28;20132;-64
2023/11/17 06:12:51;;;;;;;11.65;6.03;;;6.50;99.90;;;;;;4176354;28;20048;-64
2023/11/17 06:14:51;;;;;;;10.13;6.50;;;6.50;99.90;;;;;;4176606;28;20640;-64
2023/11/17 06:16:54;;;;;;;9.13;6.38;;;6.40;99.90;;;;;;4168361;28;20152;-64
2023/11/17 06:18:56;;;;;;;8.15;5.80;;;6.50;99.90;;;;;;4174138;28;20029;-64
2023/11/17 06:20:57;;;;;;;7.15;5.82;;;6.40;99.90;;;;;;4175055;28;20055;-64
2023/11/17 06:22:57;;;;;;;8.50;5.57;;;6.50;99.90;;;;;;4169743;28;20088;-65
2023/11/17 06:24:58;;;;;;;8.88;5.75;;;6.50;99.90;;;;;;4151536;28;20082;-64
2023/11/17 06:26:59;;;;;;;7.28;5.38;;;6.50;99.90;;;;;;4136418;28;20031;-65
2023/11/17 06:29:00;;;;;;;7.70;6.07;;;6.50;99.90;;;;;;4121198;28;20052;-68
2023/11/17 06:31:01;;;;;;;9.02;5.68;;;6.50;99.90;;;;;;4139939;28;20038;-68
2023/11/17 06:33:01;;;;;;;7.65;5.93;;;6.50;99.90;;;;;;4137494;28;20559;-68
2023/11/17 06:35:03;;;;;;;6.60;5.07;;;6.50;99.90;;;;;;4164224;28;20503;-71
2023/11/17 06:37:06;;;;;;;10.07;6.75;;;6.50;99.90;;;;;;4118870;28;20025;-68
2023/11/17 06:39:14;;;;;;;8.30;6.05;;;6.50;99.90;;;;;;4118403;28;20143;-68
2023/11/17 06:41:14;;;;;;;7.72;5.65;;;6.50;99.90;;;;;;4120368;28;20041;-69
2023/11/17 06:43:15;;;;;;;8.45;5.80;;;6.60;99.90;;;;;;4145221;28;20025;-69
2023/11/17 06:45:16;;;;;;;8.45;6.50;;;6.60;99.90;;;;;;4163147;28;20037;-69
2023/11/17 06:47:17;;;;;;;7.57;5.70;;;6.60;99.90;;;;;;4162852;28;20064;-68
2023/11/17 06:49:19;;;;;;;9.02;5.80;;;6.60;99.90;;;;;;4151697;28;20029;-69
2023/11/17 06:51:20;;;;;;;9.27;6.25;;;6.60;99.90;;;;;;4112615;28;20037;-69
2023/11/17 06:53:21;;;;;;;8.07;5.55;;;6.60;99.90;;;;;;4128806;28;20115;-69
2023/11/17 06:55:22;;;;;;;8.68;6.30;;;6.60;99.90;;;;;;4154121;28;20037;-69
2023/11/17 06:57:23;;;;;;;9.00;6.20;;;6.60;99.90;;;;;;4110775;28;20032;-69
2023/11/17 06:59:24;;;;;;;11.60;6.43;;;6.50;99.90;;;;;;4152868;28;20503;-68
2023/11/17 07:01:25;;;;;;;8.55;6.00;;;6.60;99.90;;;;;;4163877;28;20531;-69
2023/11/17 07:03:26;;;;;;;9.63;6.82;;;6.50;99.90;;;;;;4174312;28;20029;-68
2023/11/17 07:05:27;;;;;;;9.75;6.60;;;6.50;99.90;;;;;;4176111;28;20127;-69
2023/11/17 07:07:27;;;;;;;9.23;7.15;;;6.50;99.90;;;;;;4175193;28;20040;-69
2023/11/17 07:09:32;;;;;;;12.38;7.60;;;6.50;99.90;;;;;;4170049;28;20033;-69
2023/11/17 07:11:33;;;;;;;10.63;7.50;;;6.50;99.90;;;;;;4172492;28;20116;-68
2023/11/17 07:13:34;;;;;;;11.50;7.05;;;6.50;99.90;;;;;;4176885;28;20025;-69
2023/11/17 07:15:35;;;;;;;12.07;7.88;;;6.40;99.90;;;;;;4170289;28;20101;-69
2023/11/17 07:17:36;;;;;;;11.23;7.57;;;6.40;99.90;;;;;;4172402;28;20120;-69
2023/11/17 07:19:36;;;;;;;10.80;7.43;;;6.40;99.90;;;;;;4173574;28;20029;-68
2023/11/17 07:21:39;;;;;;;10.98;7.38;;;6.40;99.90;;;;;;4190204;28;20037;-69
2023/11/17 07:23:43;;;;;;;;;;;6.40;99.90;;;;;;4158074;28;20102;-69
2023/11/17 07:25:45;;;;;;;9.70;7.22;;;6.40;99.90;;;;;;4139148;28;19981;-69
2023/11/17 07:27:45;;;;;;;11.32;7.75;;;6.40;99.90;;;;;;4160307;28;20029;-68
2023/11/17 07:29:46;;;;;;;10.32;7.38;;;6.40;99.90;;;;;;4132686;28;20370;-69
2023/11/17 07:31:47;;;;;;;10.35;7.72;;;6.40;99.90;;;;;;4166196;28;20344;-68
2023/11/17 07:33:48;;;;;;;8.90;7.00;;;6.50;99.90;;;;;;4169229;28;20057;-68
2023/11/17 07:35:49;;;;;;;9.75;7.28;;;6.50;99.90;;;;;;4167120;28;20033;-68
2023/11/17 07:37:49;;;;;;;9.45;7.03;;;6.40;99.90;;;;;;4157856;28;20033;-69
2023/11/17 07:39:50;;;;;;;8.65;7.00;;;6.40;99.90;;;;;;4173416;28;20107;-73
2023/11/17 07:41:51;;;;;;;9.82;6.93;;;6.40;99.90;;;;;;4175863;28;20060;-73
2023/11/17 07:43:53;;;;;;;10.07;6.75;;;6.30;99.90;;;;;;4176780;28;20033;-73
2023/11/17 07:45:53;;;;;;;9.93;6.95;;;6.30;99.90;;;;;;4171210;28;20414;-73
2023/11/17 07:47:55;;;;;;;9.95;7.15;;;6.30;99.90;;;;;;4175938;28;20477;-73
2023/11/17 07:49:56;;;;;;;9.52;6.28;;;6.40;99.90;;;;;;4171963;28;20055;-73
2023/11/17 07:51:57;;;;;;;8.98;6.72;;;6.40;99.90;;;;;;4173512;28;20045;-73
2023/11/17 07:53:59;;;;;;;9.93;6.95;;;6.40;99.90;;;;;;4176775;28;20522;-73
2023/11/17 07:55:59;;;;;;;10.05;6.97;;;6.50;99.90;;;;;;4172345;28;20056;-73
2023/11/17 07:58:01;;;;;;;8.13;5.70;;;6.40;99.90;;;;;;4177262;28;20044;-73
2023/11/17 08:00:05;;;;;;;7.28;5.90;;;6.40;99.90;;;;;;4175635;28;20044;-73
2023/11/17 08:02:06;;;;;;;12.13;7.25;;;6.40;99.90;;;;;;4175803;28;20451;-73
2023/11/17 08:04:10;;;;;;;9.00;6.15;;;6.40;99.90;;;;;;4176787;28;20037;-73
2023/11/17 08:06:11;;;;;;;7.55;5.78;;;6.50;99.90;;;;;;4163421;28;20400;-72
2023/11/17 08:08:14;;;;;;;9.20;6.15;;;6.40;99.90;;;;;;4176297;28;20119;-72
2023/11/17 08:10:14;;;;;;;8.27;5.60;;;6.40;99.90;;;;;;4172047;28;20103;-74
2023/11/17 08:12:15;;;;;;;8.52;6.00;;;6.50;99.90;;;;;;4171981;28;20045;-73
2023/11/17 08:14:16;;;;;;;7.07;5.15;;;6.50;99.90;;;;;;4160501;28;20108;-73
2023/11/17 08:16:17;;;;;;;9.95;6.43;;;6.50;99.90;;;;;;4175522;28;20501;-73
2023/11/17 08:18:20;;;;;;;8.10;5.97;;;6.50;99.90;;;;;;4150226;28;20051;-73
2023/11/17 08:20:22;;;;;;;9.50;6.57;;;6.60;99.90;;;;;;4153398;28;20049;-74
2023/11/17 08:22:23;;;;;;;9.13;6.55;;;6.50;99.90;;;;;;4159493;28;20483;-73
2023/11/17 08:24:24;;;;;;;7.20;5.72;;;6.50;99.90;;;;;;4187250;28;20119;-73
2023/11/17 08:26:30;;;;;;;9.23;6.28;;;6.50;99.90;;;;;;4174462;28;20048;-73
2023/11/17 08:28:32;;;;;;;9.73;6.47;;;6.50;99.90;;;;;;4175142;28;20033;-73
2023/11/17 08:30:33;;;;;;;8.73;6.53;;;6.60;99.90;;;;;;4188019;28;20139;-74
2023/11/17 08:32:38;;;;;;;11.77;7.18;;;6.60;99.90;;;;;;4173527;28;20033;-74
2023/11/17 08:34:38;;;;;;;10.93;7.03;;;6.60;99.90;;;;;;4173835;28;20039;-73
2023/11/17 08:36:39;;;;;;;12.57;8.05;;;6.60;99.90;;;;;;4174243;28;20529;-73
2023/11/17 08:38:43;;;;;;;11.85;8.02;;;6.60;99.90;;;;;;4174797;28;20064;-74
2023/11/17 08:40:47;;;;;;;11.95;8.15;;;6.60;99.90;;;;;;4172212;28;20702;-73
2023/11/17 08:42:49;;;;;;;12.18;8.85;;;6.60;99.90;;;;;;4171145;28;20052;-73
2023/11/17 08:44:49;;;;;;;14.27;9.13;;;6.60;99.90;;;;;;4177225;28;20037;-73
2023/11/17 08:46:51;;;;;;;13.55;9.18;;;6.60;99.90;;;;;;4177874;28;20524;-74
2023/11/17 08:48:52;;;;;;;12.88;8.70;;;6.60;99.90;;;;;;4178362;28;20033;-65
2023/11/17 08:50:53;;;;;;;13.60;9.18;;;6.60;99.90;;;;;;4176586;28;20045;-65
2023/11/17 08:52:53;;;;;;;15.82;9.68;;;6.60;99.90;;;;;;4179166;28;20051;-65
2023/11/17 08:54:54;;;;;;;15.23;10.02;;;6.70;99.90;;;;;;4178875;28;20123;-65
2023/11/17 08:56:58;;;;;;;14.57;9.38;;;6.70;99.90;;;;;;4177586;28;20029;-65
2023/11/17 08:58:58;;;;;;;18.65;11.73;;;6.70;99.90;;;;;;4192860;28;20068;-68
2023/11/17 09:00:59;;;;;;;15.55;10.57;;;6.70;99.90;;;;;;4172555;28;20898;-67
2023/11/17 09:03:00;;;;;;;16.98;10.85;;;6.70;99.90;;;;;;4178146;28;20037;-68
2023/11/17 09:05:00;;;;;;;15.32;10.10;;;6.70;99.90;;;;;;4178139;28;20594;-68
2023/11/17 09:07:01;;;;;;;18.08;10.18;;;6.80;99.90;;;;;;4169283;28;20053;-68
2023/11/17 09:09:04;;;;;;;18.45;11.40;;;6.80;99.90;;;;;;4166060;28;20512;-65
2023/11/17 09:11:05;;;;;;;20.75;12.50;;;6.80;99.90;;;;;;4162633;28;20060;-65
2023/11/17 09:13:06;;;;;;;17.65;11.27;;;6.80;99.90;;;;;;4168643;28;20052;-65
2023/11/17 09:15:09;;;;;;;19.00;11.57;;;6.90;99.90;;;;;;4175691;28;20393;-65
2023/11/17 09:17:09;;;;;;;19.25;11.82;;;6.90;99.90;;;;;;4177715;28;20029;-65
2023/11/17 09:19:11;;;;;;;20.92;11.65;;;6.90;99.90;;;;;;4177692;28;20072;-65
2023/11/17 09:21:14;;;;;;;19.83;12.38;;;6.90;99.90;;;;;;4159184;28;20112;-66
2023/11/17 09:23:15;;;;;;;25.35;14.43;;;6.90;99.90;;;;;;4178739;28;20025;-65
2023/11/17 09:25:18;;;;;;;21.60;13.07;;;6.90;99.90;;;;;;4175233;28;20064;-65
2023/11/17 09:27:18;;;;;;;21.98;12.65;;;7.00;99.90;;;;;;4176393;28;20041;-65
2023/11/17 09:29:19;;;;;;;25.20;13.98;;;7.00;99.90;;;;;;4175065;28;20030;-65
2023/11/17 09:31:19;;;;;;;23.60;13.63;;;7.00;99.90;;;;;;4177497;28;20037;-65
2023/11/17 09:33:20;;;;;;;23.52;12.52;;;6.90;99.90;;;;;;4178234;28;20025;-65
2023/11/17 09:35:25;;;;;;;22.90;13.43;;;7.00;99.90;;;;;;4177514;28;20119;-65
2023/11/17 09:37:26;;;;;;;21.10;12.63;;;7.00;99.90;;;;;;4175659;28;20025;-65
2023/11/17 09:39:27;;;;;;;22.67;13.57;;;7.10;99.90;;;;;;4173108;28;20040;-65
2023/11/17 09:41:28;;;;;;;24.63;14.43;;;7.10;99.90;;;;;;4173706;28;20045;-65
2023/11/17 09:43:42;;;;;;;26.35;15.38;;;7.10;99.90;;;;;;4178212;28;20033;-64
2023/11/17 09:45:46;;;;;;;27.80;15.38;;;7.10;99.90;;;;;;4166895;28;20433;-65
2023/11/17 09:47:53;;;;;;;30.00;16.42;;;7.10;99.90;;;;;;4168263;28;20037;-65
2023/11/17 09:49:55;;;;;;;29.33;17.25;;;7.10;99.90;;;;;;4161000;28;20186;-65
2023/11/17 09:51:58;;;;;;;;;;;7.10;99.90;;;;;;4185237;28;20025;-65
2023/11/17 09:54:02;;;;;;;26.45;15.27;;;7.10;99.90;;;;;;4177633;28;19921;-64
2023/11/17 09:56:08;;;;;;;36.80;16.98;;;7.20;99.90;;;;;;4169137;28;20032;-64
2023/11/17 09:58:12;;;;;;;26.25;15.27;;;7.20;99.90;;;;;;4156353;28;20485;-65
2023/11/17 10:00:27;;;;;;;28.48;16.48;;;7.20;99.90;;;;;;4153502;28;20098;-65
2023/11/17 10:02:28;;;;;;;32.53;17.77;;;7.30;99.90;;;;;;4168628;28;20025;-65
2023/11/17 10:04:29;;;;;;;38.88;19.30;;;7.20;99.90;;;;;;4171232;28;20043;-65
2023/11/17 10:06:30;;;;;;;35.20;19.42;;;7.30;99.90;;;;;;4177323;28;20457;-65
2023/11/17 10:08:32;;;;;;;35.57;18.77;;;7.30;99.90;;;;;;4160757;28;20026;-73
2023/11/17 10:10:39;;;;;;;32.33;17.77;;;7.30;99.90;;;;;;4164607;28;20045;-73
2023/11/17 10:12:43;;;;;;;35.72;18.85;;;7.40;99.90;;;;;;4183350;28;20059;-72
2023/11/17 10:14:45;;;;;;;45.40;21.13;;;7.40;99.90;;;;;;4177047;28;20032;-72
2023/11/17 10:16:46;;;;;;;37.28;20.00;;;7.40;99.90;;;;;;4177036;28;20037;-72
2023/11/17 10:18:47;;;;;;;34.17;19.60;;;7.40;99.90;;;;;;4157162;28;20478;-73
2023/11/17 10:20:48;;;;;;;38.67;21.60;;;7.50;99.90;;;;;;4168732;28;20084;-72
2023/11/17 10:22:50;;;;;;;37.65;21.00;;;7.50;99.90;;;;;;4176765;28;20037;-72
2023/11/17 10:24:51;;;;;;;40.95;22.30;;;7.50;99.90;;;;;;4178288;28;20025;-72
2023/11/17 10:26:52;;;;;;;40.22;21.73;;;7.60;99.90;;;;;;4176813;28;20082;-72
2023/11/17 10:28:54;;;;;;;40.25;21.55;;;7.50;99.90;;;;;;4176335;28;20037;-72
2023/11/17 10:31:00;;;;;;;38.80;20.63;;;7.60;99.90;;;;;;4176389;28;20048;-72
2023/11/17 10:33:09;;;;;;;40.35;22.70;;;7.60;99.90;;;;;;4177803;28;20036;-72
2023/11/17 10:35:23;;;;;;;41.53;22.33;;;7.60;99.90;;;;;;4177417;28;20435;-73
2023/11/17 10:37:33;;;;;;;41.25;22.40;;;7.60;99.90;;;;;;4176012;28;20112;-72
2023/11/17 10:39:49;;;;;;;39.25;21.45;;;7.60;99.90;;;;;;4172915;28;20033;-72
2023/11/17 10:41:52;;;;;;;36.42;21.02;;;7.60;99.90;;;;;;4174366;28;20025;-72